Time;durP1;ratioP1;P1;durP2;ratioP2;P2;SDS_P1;SDS_P2;PMS_P1;PMS_P2;Temp;Humidity;BMP_temperature;BMP_pressure;BME280_temperature;BME280_humidity;BME280_pressure;Samples;Min_cycle;Max_cycle;Signal;HPM_P1;HPM_P2
2022/08/13 00:01:37;;;;;;;4.43;4.03;;;;;;;31.79;32.12;98305.66;5084724;28;20032;-81
2022/08/13 00:04:07;;;;;;;3.53;3.17;;;;;;;32.50;30.32;98291.50;5085998;28;20027;-80
2022/08/13 00:09:08;;;;;;;3.60;3.22;;;;;;;32.44;30.43;98296.28;5088066;28;19930;-80
2022/08/13 00:14:35;;;;;;;4.28;3.75;;;;;;;32.88;30.33;98288.63;5051275;28;20496;-81
2022/08/13 00:17:07;;;;;;;4.90;3.65;;;;;;;33.24;29.74;98293.94;5085680;28;20035;-81
2022/08/13 00:19:33;;;;;;;3.78;3.35;;;;;;;33.85;28.65;98286.38;5084986;28;20036;-80
2022/08/13 00:22:00;;;;;;;4.00;3.58;;;;;;;34.23;28.05;98291.06;5087286;28;20471;-80
2022/08/13 00:24:27;;;;;;;3.40;3.13;;;;;;;34.42;27.54;98283.81;5088298;28;20038;-81
2022/08/13 00:26:53;;;;;;;3.50;3.20;;;;;;;34.54;27.16;98285.50;5086104;28;20040;-80
2022/08/13 00:29:19;;;;;;;3.60;3.08;;;;;;;34.25;27.90;98284.84;5086385;28;20028;-81
2022/08/13 00:31:49;;;;;;;3.50;3.20;;;;;;;34.33;27.93;98283.91;5084844;28;20071;-81
2022/08/13 00:34:16;;;;;;;5.00;3.92;;;;;;;33.82;28.51;98273.13;5088298;28;20036;-81
2022/08/13 00:36:42;;;;;;;4.07;3.35;;;;;;;32.84;30.35;98270.19;5085257;28;20131;-81
2022/08/13 00:39:10;;;;;;;4.07;3.58;;;;;;;32.96;29.87;98269.88;5086144;28;20032;-80
2022/08/13 00:41:38;;;;;;;3.42;3.13;;;;;;;32.97;30.14;98271.47;5085911;28;20032;-80
2022/08/13 00:44:09;;;;;;;3.22;2.92;;;;;;;33.28;29.35;98268.13;5084460;28;20059;-80
2022/08/13 00:46:37;;;;;;;3.63;3.28;;;;;;;33.86;28.63;98262.31;5087479;28;20492;-80
2022/08/13 00:49:04;;;;;;;3.45;3.03;;;;;;;34.35;27.80;98250.00;5085811;28;20074;-81
2022/08/13 00:51:32;;;;;;;4.50;3.28;;;;;;;34.47;28.11;98253.78;5086901;28;20114;-80
2022/08/13 00:54:02;;;;;;;4.95;3.35;;;;;;;34.32;27.97;98262.41;5084025;28;20063;-80
2022/08/13 00:56:33;;;;;;;3.80;3.50;;;;;;;34.33;27.97;98254.66;5085474;28;20063;-81
2022/08/13 00:59:03;;;;;;;;;;;;;;;34.47;27.90;98250.94;5086342;28;20032;-81
2022/08/13 01:01:30;;;;;;;3.10;2.80;;;;;;;34.52;28.03;98255.88;5082169;28;19924;-80
2022/08/13 01:03:57;;;;;;;2.80;2.60;;;;;;;34.37;27.91;98253.16;5086064;28;20407;-80
2022/08/13 01:06:24;;;;;;;2.72;2.50;;;;;;;34.04;28.56;98250.66;5082704;28;20036;-80
2022/08/13 01:08:53;;;;;;;3.38;3.08;;;;;;;33.72;29.17;98246.06;5086588;28;20032;-80
2022/08/13 01:11:21;;;;;;;4.20;3.80;;;;;;;33.49;29.46;98234.81;5086230;28;20040;-80
2022/08/13 01:13:48;;;;;;;4.32;3.92;;;;;;;32.52;30.89;98235.72;5086400;28;20035;-80
2022/08/13 01:16:14;;;;;;;4.38;3.63;;;;;;;32.99;30.30;98237.63;5086121;28;20040;-80
2022/08/13 01:18:50;;;;;;;4.07;3.60;;;;;;;32.82;30.26;98228.00;5085222;28;20086;-80
2022/08/13 01:21:19;;;;;;;5.05;4.53;;;;;;;32.76;30.87;98232.81;5083686;28;20067;-80
2022/08/13 01:23:49;;;;;;;5.30;4.50;;;;;;;33.26;30.29;98228.75;5087050;28;20051;-80
2022/08/13 01:26:17;;;;;;;7.10;5.65;;;;;;;33.48;29.97;98221.84;5086380;28;20385;-81
2022/08/13 01:28:45;;;;;;;4.90;4.38;;;;;;;33.61;29.43;98223.09;5084452;28;20572;-80
2022/08/13 01:31:14;;;;;;;4.57;4.13;;;;;;;34.01;28.93;98213.78;5085557;28;20071;-82
2022/08/13 01:33:43;;;;;;;4.00;3.60;;;;;;;34.51;28.25;98205.84;5085791;28;20046;-81
2022/08/13 01:36:10;;;;;;;4.60;3.60;;;;;;;34.41;28.20;98218.69;5084537;28;20034;-80
2022/08/13 01:38:38;;;;;;;4.57;4.18;;;;;;;34.05;28.75;98215.19;5084612;28;20387;-81
2022/08/13 01:41:08;;;;;;;4.70;4.03;;;;;;;34.11;28.57;98215.25;5083584;28;20419;-80
2022/08/13 01:43:36;;;;;;;;;;;;;;;34.22;28.65;98223.13;5086248;28;20039;-80
2022/08/13 01:46:02;;;;;;;4.40;3.97;;;;;;;33.89;28.97;98226.31;5083464;28;19916;-80
2022/08/13 01:51:21;;;;;;;4.00;3.65;;;;;;;33.41;29.42;98226.69;5083348;28;20055;-80
2022/08/13 01:53:51;;;;;;;4.70;3.55;;;;;;;33.73;29.30;98218.34;5083195;28;20036;-80
2022/08/13 01:56:21;;;;;;;6.55;4.53;;;;;;;33.60;29.38;98217.91;5086687;28;20468;-81
2022/08/13 01:58:50;;;;;;;7.05;5.85;;;;;;;33.10;30.32;98215.06;5084366;28;20039;-80
2022/08/13 02:01:17;;;;;;;6.07;5.22;;;;;;;32.97;30.48;98222.31;5084184;28;20036;-81
2022/08/13 02:03:49;;;;;;;6.90;6.03;;;;;;;33.02;30.25;98219.59;5082611;28;20597;-81
2022/08/13 02:06:24;;;;;;;5.75;4.50;;;;;;;32.14;31.79;98212.22;5086291;28;21298;-80
2022/08/13 02:08:58;;;;;;;7.50;6.53;;;;;;;32.32;31.72;98212.84;5083729;28;20475;-80
2022/08/13 02:11:25;;;;;;;6.85;6.15;;;;;;;32.65;31.36;98215.56;5084476;28;20043;-80
2022/08/13 02:13:55;;;;;;;7.47;6.05;;;;;;;32.85;30.79;98215.66;5083321;28;20119;-80
2022/08/13 02:16:22;;;;;;;7.95;6.53;;;;;;;33.09;30.68;98215.56;5085485;28;20387;-81
2022/08/13 02:18:52;;;;;;;8.13;6.72;;;;;;;33.02;30.49;98216.75;5086076;28;20610;-80
2022/08/13 02:21:22;;;;;;;7.88;6.75;;;;;;;32.64;31.18;98211.94;5084166;28;20515;-80
2022/08/13 02:23:56;;;;;;;10.40;7.47;;;;;;;32.86;30.95;98199.38;5085615;28;20415;-80
2022/08/13 02:26:23;;;;;;;8.10;6.32;;;;;;;32.56;31.06;98216.41;5085470;28;20111;-81
2022/08/13 02:28:54;;;;;;;8.13;6.38;;;;;;;31.74;32.07;98209.81;5085192;28;20027;-80
2022/08/13 02:31:21;;;;;;;9.15;7.07;;;;;;;31.79;32.89;98211.97;5084719;28;20044;-81
2022/08/13 02:33:48;;;;;;;10.05;7.95;;;;;;;32.09;32.52;98214.44;5084972;28;20036;-81
2022/08/13 02:36:15;;;;;;;8.75;6.43;;;;;;;32.34;32.03;98213.16;5086149;28;20028;-80
2022/08/13 02:38:44;;;;;;;9.32;6.28;;;;;;;32.79;31.24;98214.00;5088624;28;20039;-80
2022/08/13 02:44:00;;;;;;;9.13;6.82;;;;;;;32.81;30.88;98209.38;5090273;28;20572;-80
2022/08/13 02:46:27;;;;;;;7.15;6.15;;;;;;;32.68;30.92;98206.81;5088665;28;20505;-80
2022/08/13 02:48:53;;;;;;;8.68;6.47;;;;;;;32.81;31.08;98215.06;5089693;28;21000;-80
2022/08/13 02:51:23;;;;;;;7.80;6.20;;;;;;;32.44;31.22;98216.69;5090199;28;20044;-80
2022/08/13 02:53:49;;;;;;;9.20;6.57;;;;;;;32.55;31.68;98211.22;5089313;28;20159;-80
2022/08/13 02:56:15;;;;;;;9.35;6.57;;;;;;;32.79;30.97;98216.84;5088630;28;20064;-81
2022/08/13 02:58:41;;;;;;;8.73;5.63;;;;;;;33.20;30.73;98213.69;5088432;28;20050;-80
2022/08/13 03:01:11;;;;;;;9.63;6.90;;;;;;;32.83;30.43;98214.56;5085798;28;20044;-81
2022/08/13 03:03:38;;;;;;;9.63;6.33;;;;;;;32.79;30.77;98214.00;5088988;28;20116;-81
2022/08/13 03:06:04;;;;;;;7.60;6.47;;;;;;;32.87;31.05;98204.56;5087988;28;20051;-80
2022/08/13 03:08:31;;;;;;;8.98;6.05;;;;;;;32.69;31.22;98204.78;5087655;28;20039;-80
2022/08/13 03:10:57;;;;;;;9.90;6.80;;;;;;;32.92;30.87;98201.03;5086060;28;20480;-80
2022/08/13 03:13:36;;;;;;;9.48;6.60;;;;;;;33.03;30.34;98189.84;5087902;28;20036;-80
2022/08/13 03:16:03;;;;;;;12.27;7.97;;;;;;;32.91;30.84;98196.59;5089968;28;20040;-80
2022/08/13 03:18:30;;;;;;;9.27;6.88;;;;;;;33.32;30.58;98186.16;5088373;28;20055;-80
2022/08/13 03:20:57;;;;;;;7.90;5.60;;;;;;;33.97;29.38;98176.19;5085852;28;20404;-80
2022/08/13 03:23:24;;;;;;;7.93;5.93;;;;;;;34.26;28.74;98178.88;5078697;28;20028;-80
2022/08/13 03:25:50;;;;;;;9.80;6.38;;;;;;;34.14;28.87;98170.72;5085571;28;20039;-80
2022/08/13 03:28:17;;;;;;;8.43;6.07;;;;;;;34.45;28.42;98173.66;5085262;28;20071;-80
2022/08/13 03:30:43;;;;;;;8.63;6.10;;;;;;;34.56;28.45;98173.78;5089375;28;20078;-80
2022/08/13 03:33:13;;;;;;;10.02;6.80;;;;;;;34.69;27.88;98177.00;5089658;28;20032;-81
2022/08/13 03:35:39;;;;;;;9.02;6.50;;;;;;;34.64;28.03;98181.38;5089496;28;20395;-80
2022/08/13 03:38:08;;;;;;;8.20;5.72;;;;;;;34.89;27.65;98184.72;5086818;28;20507;-80
2022/08/13 03:43:21;;;;;;;8.60;5.60;;;;;;;35.32;26.96;98192.06;5086894;28;20047;-80
2022/08/13 03:45:47;;;;;;;6.93;5.40;;;;;;;35.46;26.73;98182.56;5088547;28;20055;-80
2022/08/13 03:48:15;;;;;;;7.05;5.55;;;;;;;35.56;26.60;98192.53;5086945;28;20028;-80
2022/08/13 03:50:43;;;;;;;8.55;6.15;;;;;;;35.63;26.55;98194.09;5089080;28;20040;-80
2022/08/13 03:53:10;;;;;;;8.57;5.75;;;;;;;35.63;26.55;98192.03;5090529;28;20028;-83
2022/08/13 03:55:41;;;;;;;9.57;6.47;;;;;;;35.45;26.79;98185.94;5086162;28;20031;-81
2022/08/13 03:58:09;;;;;;;8.20;6.15;;;;;;;35.36;26.92;98184.81;5087171;28;20089;-81
2022/08/13 04:00:47;;;;;;;9.35;6.90;;;;;;;35.36;26.80;98184.03;5086360;28;20063;-81
2022/08/13 04:03:36;;;;;;;9.25;6.65;;;;;;;34.95;27.47;98197.72;5089168;28;20077;-80
2022/08/13 04:06:09;;;;;;;10.38;6.82;;;;;;;34.48;28.09;98195.44;5086339;28;21988;-80
2022/08/13 04:08:36;;;;;;;9.77;6.82;;;;;;;34.36;28.45;98202.31;5087058;28;20409;-80
2022/08/13 04:11:14;;;;;;;13.82;8.55;;;;;;;34.20;28.44;98200.06;5088482;28;20671;-80
2022/08/13 04:13:41;;;;;;;11.60;7.97;;;;;;;34.16;28.87;98202.34;5087908;28;20040;-80
2022/08/13 04:16:11;;;;;;;10.35;6.90;;;;;;;34.40;28.51;98195.09;5084901;28;20040;-80
2022/08/13 04:18:39;;;;;;;11.98;7.40;;;;;;;34.43;28.50;98193.31;5087099;28;20475;-80
2022/08/13 04:21:08;;;;;;;12.75;7.82;;;;;;;34.32;28.83;98194.00;5088676;28;20039;-80
2022/08/13 04:23:38;;;;;;;11.65;7.18;;;;;;;34.10;29.07;98193.72;5085933;28;20039;-81
2022/08/13 04:26:04;;;;;;;13.43;8.23;;;;;;;34.13;28.92;98191.94;5084579;28;20032;-80
2022/08/13 04:28:30;;;;;;;12.20;7.93;;;;;;;34.38;28.98;98191.97;5083807;28;20290;-80
2022/08/13 04:30:58;;;;;;;13.02;8.18;;;;;;;34.53;28.55;98197.59;5085052;28;20061;-80
2022/08/13 04:33:25;;;;;;;12.95;8.60;;;;;;;34.45;28.64;98193.63;5089909;28;20039;-81
2022/08/13 04:35:51;;;;;;;13.43;7.72;;;;;;;34.46;28.75;98189.47;5090578;28;20548;-81
2022/08/13 04:38:17;;;;;;;12.65;7.88;;;;;;;34.57;28.69;98186.75;5088561;28;20028;-81
2022/08/13 04:40:46;;;;;;;15.40;9.23;;;;;;;34.27;28.96;98188.22;5089969;28;20455;-81
2022/08/13 04:43:13;;;;;;;16.85;9.60;;;;;;;34.13;29.34;98187.03;5089054;28;20395;-81
2022/08/13 04:45:40;;;;;;;13.85;9.57;;;;;;;33.72;29.90;98188.31;5091292;28;20032;-81
2022/08/13 04:48:12;;;;;;;17.05;10.30;;;;;;;33.66;29.79;98182.53;5089778;28;20032;-82
2022/08/13 04:50:40;;;;;;;16.05;9.30;;;;;;;33.28;30.12;98191.28;5090177;28;20048;-81
2022/08/13 04:53:09;;;;;;;16.10;9.90;;;;;;;33.11;30.87;98198.78;5092119;28;20025;-80
2022/08/13 04:55:37;;;;;;;17.10;9.95;;;;;;;33.21;31.07;98183.91;5091707;28;20043;-81
2022/08/13 04:58:04;;;;;;;15.35;8.80;;;;;;;33.61;30.17;98171.84;5090620;28;20081;-80
2022/08/13 05:00:32;;;;;;;16.38;9.75;;;;;;;33.74;29.96;98172.28;5091551;28;20509;-82
2022/08/13 05:03:11;;;;;;;15.73;9.73;;;;;;;33.65;29.96;98180.19;5091918;28;20035;-81
2022/08/13 05:05:37;;;;;;;14.07;8.68;;;;;;;33.59;30.19;98176.47;5089623;28;21067;-82
2022/08/13 05:08:07;;;;;;;13.98;8.48;;;;;;;34.04;29.55;98185.13;5087660;28;21722;-80
2022/08/13 05:10:37;;;;;;;14.60;8.02;;;;;;;34.56;28.81;98179.50;5090209;28;20036;-81
2022/08/13 05:13:17;;;;;;;17.95;9.75;;;;;;;34.63;28.59;98184.75;5089025;28;20051;-81
2022/08/13 05:15:43;;;;;;;15.40;9.82;;;;;;;34.17;29.33;98181.88;5087178;28;20117;-81
2022/08/13 05:18:09;;;;;;;16.38;9.30;;;;;;;34.07;29.55;98183.34;5082580;28;20059;-81
2022/08/13 05:20:36;;;;;;;13.85;8.77;;;;;;;34.30;29.22;98173.75;5086051;28;20039;-81
2022/08/13 05:23:13;;;;;;;15.43;9.00;;;;;;;34.75;28.59;98175.75;5085902;28;20480;-80
2022/08/13 05:25:40;;;;;;;13.25;8.35;;;;;;;34.91;28.29;98180.06;5086525;28;20102;-80
2022/08/13 05:28:10;;;;;;;14.48;8.07;;;;;;;34.48;29.08;98184.03;5084031;28;20089;-80
2022/08/13 05:30:38;;;;;;;15.05;8.50;;;;;;;33.79;29.87;98176.50;5081143;28;20059;-82
2022/08/13 05:33:13;;;;;;;12.68;8.07;;;;;;;32.06;32.71;98175.66;5084355;28;20109;-82
2022/08/13 05:35:41;;;;;;;15.80;9.70;;;;;;;31.29;34.60;98171.91;5082338;28;20114;-83
2022/08/13 05:38:07;;;;;;;18.77;10.23;;;;;;;32.00;33.73;98171.13;5084079;28;20047;-82
2022/08/13 05:40:35;;;;;;;13.70;8.40;;;;;;;32.91;32.79;98162.47;5085923;28;20086;-83
2022/08/13 05:43:02;;;;;;;16.67;9.57;;;;;;;32.82;32.02;98162.56;5083132;28;20028;-83
2022/08/13 05:45:29;;;;;;;11.70;7.68;;;;;;;32.38;33.37;98161.78;5086738;28;20440;-82
2022/08/13 05:47:55;;;;;;;15.00;8.25;;;;;;;32.47;33.52;98170.22;5087209;28;20050;-82
2022/08/13 05:50:22;;;;;;;13.15;8.20;;;;;;;31.71;34.05;98180.34;5080402;28;20676;-82
2022/08/13 05:52:48;;;;;;;13.70;7.78;;;;;;;31.90;33.79;98170.38;5074964;28;20067;-81
2022/08/13 05:55:15;;;;;;;15.93;9.70;;;;;;;30.61;36.26;98184.09;5083320;28;20036;-83
2022/08/13 05:57:42;;;;;;;18.13;9.98;;;;;;;30.55;37.00;98180.34;5083738;28;20035;-83
2022/08/13 06:05:38;;;;;;;13.73;8.35;;;;;;;30.63;36.57;98182.38;5076393;28;20477;-83
2022/08/13 06:08:05;;;;;;;13.40;7.95;;;;;;;30.87;36.61;98182.47;5080171;28;20502;-83
2022/08/13 06:10:33;;;;;;;12.98;7.45;;;;;;;31.63;35.09;98169.81;5086994;28;20060;-82
2022/08/13 06:13:00;;;;;;;16.55;8.93;;;;;;;30.50;36.88;98175.31;5079516;28;20036;-82
2022/08/13 06:15:27;;;;;;;12.90;7.20;;;;;;;31.55;34.96;98175.09;5087339;28;20093;-82
2022/08/13 06:17:53;;;;;;;11.38;7.05;;;;;;;31.49;35.39;98177.00;5081553;28;20027;-82
2022/08/13 06:20:22;;;;;;;11.25;7.55;;;;;;;32.00;34.07;98174.75;5082485;28;20396;-82
2022/08/13 06:22:51;;;;;;;15.32;9.73;;;;;;;31.18;35.08;98182.97;5082756;28;20135;-83
2022/08/13 06:25:18;;;;;;;10.00;6.57;;;;;;;31.38;35.93;98174.69;5086000;28;20039;-83
2022/08/13 06:27:44;;;;;;;10.93;6.68;;;;;;;31.70;34.90;98166.59;5081656;28;20040;-82
2022/08/13 06:30:11;;;;;;;9.90;6.38;;;;;;;32.49;33.18;98170.50;5087282;28;20031;-82
2022/08/13 06:32:38;;;;;;;11.77;6.53;;;;;;;32.20;33.53;98170.50;5083626;28;20032;-82
2022/08/13 06:35:08;;;;;;;14.23;8.25;;;;;;;30.47;36.52;98181.94;5079453;28;20038;-81
2022/08/13 06:37:34;;;;;;;9.45;6.55;;;;;;;32.03;34.29;98173.00;5086296;28;20036;-82
2022/08/13 06:40:01;;;;;;;11.63;6.47;;;;;;;32.39;33.38;98171.88;5088145;28;20039;-81
2022/08/13 06:42:33;;;;;;;8.68;6.00;;;;;;;32.90;32.48;98172.28;5084584;28;20034;-82
2022/08/13 06:45:02;;;;;;;9.70;6.30;;;;;;;33.29;31.67;98170.84;5080214;28;20032;-82
2022/08/13 06:47:31;;;;;;;8.85;6.35;;;;;;;33.29;31.43;98165.16;5085826;28;20039;-84
2022/08/13 06:49:59;;;;;;;10.05;6.00;;;;;;;33.00;32.56;98164.44;5079878;28;20048;-82
2022/08/13 06:52:27;;;;;;;8.95;5.75;;;;;;;32.89;32.54;98167.88;5083874;28;20059;-82
2022/08/13 06:54:57;;;;;;;8.38;5.43;;;;;;;32.43;33.35;98158.25;5075028;28;20040;-83
2022/08/13 06:57:24;;;;;;;9.15;5.97;;;;;;;33.08;32.90;98155.00;5079140;28;20056;-82
2022/08/13 06:59:54;;;;;;;8.25;5.47;;;;;;;33.68;31.38;98162.88;5075033;28;20068;-82
2022/08/13 07:02:24;;;;;;;9.20;5.63;;;;;;;33.87;31.16;98163.38;5076584;28;20433;-83
2022/08/13 07:04:51;;;;;;;8.45;6.13;;;;;;;34.07;30.90;98158.44;5079306;28;20135;-82
2022/08/13 07:07:18;;;;;;;8.10;5.95;;;;;;;34.05;30.90;98161.03;5086186;28;20024;-82
2022/08/13 07:09:45;;;;;;;8.45;5.38;;;;;;;33.99;30.92;98160.16;5085599;28;20035;-81
2022/08/13 07:12:12;;;;;;;6.45;5.05;;;;;;;34.11;30.69;98163.16;5083893;28;20032;-81
2022/08/13 07:14:42;;;;;;;10.55;5.75;;;;;;;34.13;30.84;98161.38;5080871;28;20039;-84
2022/08/13 07:17:10;;;;;;;7.30;5.30;;;;;;;34.13;30.77;98160.59;5083398;28;20069;-83
2022/08/13 07:19:37;;;;;;;7.20;5.20;;;;;;;33.69;31.45;98152.28;5082039;28;20159;-81
2022/08/13 07:22:04;;;;;;;9.98;6.00;;;;;;;33.47;31.70;98155.56;5077414;28;20078;-81
2022/08/13 07:24:30;;;;;;;8.02;5.57;;;;;;;33.62;31.57;98155.53;5081836;28;20101;-82
2022/08/13 07:27:01;;;;;;;7.97;5.05;;;;;;;34.02;31.25;98159.16;5077844;28;20051;-80
2022/08/13 07:29:27;;;;;;;7.20;5.10;;;;;;;34.18;31.03;98159.88;5080322;28;20024;-81
2022/08/13 07:31:54;;;;;;;6.57;5.07;;;;;;;34.48;30.67;98164.06;5083536;28;20054;-81
2022/08/13 07:34:21;;;;;;;5.70;4.22;;;;;;;34.15;30.72;98161.66;5087489;28;20035;-80
2022/08/13 07:36:56;;;;;;;7.47;5.15;;;;;;;34.21;30.95;98164.56;5086649;28;20073;-83
2022/08/13 07:39:22;;;;;;;6.80;4.97;;;;;;;34.26;31.09;98166.72;5089415;28;20039;-81
2022/08/13 07:41:49;;;;;;;7.47;4.72;;;;;;;34.08;31.38;98157.19;5087266;28;20036;-81
2022/08/13 07:44:23;;;;;;;5.55;4.00;;;;;;;33.04;32.96;98167.88;5090310;28;20550;-82
2022/08/13 07:46:52;;;;;;;7.05;4.85;;;;;;;33.13;32.97;98168.53;5092181;28;20495;-81
2022/08/13 07:49:20;;;;;;;5.77;4.37;;;;;;;33.04;33.21;98171.50;5094921;28;20194;-82
2022/08/13 07:51:48;;;;;;;8.40;4.63;;;;;;;33.24;33.01;98163.00;5094352;28;20052;-81
2022/08/13 07:54:15;;;;;;;7.03;5.63;;;;;;;33.03;33.39;98164.25;5095161;28;20042;-82
2022/08/13 07:56:47;;;;;;;9.45;6.32;;;;;;;31.44;37.10;98168.38;5095291;28;20027;-82
2022/08/13 07:59:18;;;;;;;10.63;7.18;;;;;;;30.96;37.67;98170.31;5095227;28;20570;-82
2022/08/13 08:01:50;;;;;;;9.13;6.75;;;;;;;31.37;36.84;98166.63;5094426;28;20044;-81
2022/08/13 08:04:19;;;;;;;7.45;5.78;;;;;;;32.54;34.59;98169.84;5093632;28;20029;-82
2022/08/13 08:06:48;;;;;;;6.60;5.38;;;;;;;31.83;36.10;98167.16;5094456;28;20373;-82
2022/08/13 08:09:24;;;;;;;8.98;6.55;;;;;;;32.43;35.42;98155.41;5093270;28;20028;-81
2022/08/13 08:14:38;;;;;;;6.90;5.15;;;;;;;32.98;34.41;98156.38;5093945;28;20039;-82
2022/08/13 08:17:08;;;;;;;6.78;5.28;;;;;;;32.33;35.83;98151.88;5094279;28;20036;-81
2022/08/13 08:19:37;;;;;;;5.97;5.18;;;;;;;31.01;38.97;98156.28;5094891;28;20055;-82
2022/08/13 08:22:05;;;;;;;6.78;5.35;;;;;;;30.54;39.51;98154.06;5095145;28;20059;-82
2022/08/13 08:24:32;;;;;;;6.30;5.28;;;;;;;29.82;41.46;98157.75;5094604;28;20039;-82
2022/08/13 08:27:04;;;;;;;8.15;6.82;;;;;;;30.20;41.12;98145.91;5094901;28;20510;-81
2022/08/13 08:29:32;;;;;;;4.95;4.32;;;;;;;30.42;40.15;98142.91;5094477;28;20031;-82
2022/08/13 08:31:59;;;;;;;5.07;4.40;;;;;;;30.66;39.67;98146.63;5093999;28;20035;-82
2022/08/13 08:34:26;;;;;;;6.15;4.80;;;;;;;31.29;38.49;98142.72;5094435;28;20028;-81
2022/08/13 08:36:56;;;;;;;5.55;4.80;;;;;;;31.06;38.91;98130.09;5093354;28;20016;-81
2022/08/13 08:42:36;;;;;;;4.67;3.83;;;;;;;32.06;36.64;98133.06;5069128;28;20142;-81
2022/08/13 08:45:08;;;;;;;4.35;3.95;;;;;;;32.61;35.77;98121.91;5094264;28;20270;-81
2022/08/13 08:47:35;;;;;;;5.65;4.43;;;;;;;32.00;36.97;98122.84;5094291;28;20480;-81
2022/08/13 08:50:02;;;;;;;3.88;3.30;;;;;;;31.89;37.73;98131.91;5093733;28;20075;-81
2022/08/13 08:55:18;;;;;;;4.28;3.70;;;;;;;30.26;40.95;98138.34;5094442;28;20047;-81
2022/08/13 08:57:44;;;;;;;5.68;4.00;;;;;;;29.60;42.45;98139.28;5094112;28;20024;-81
2022/08/13 09:00:18;;;;;;;3.92;3.45;;;;;;;30.70;40.00;98136.69;5092607;28;20050;-82
2022/08/13 09:02:47;;;;;;;4.35;3.95;;;;;;;30.20;40.91;98140.22;5093816;28;20032;-81
2022/08/13 09:05:16;;;;;;;6.47;4.13;;;;;;;29.16;44.29;98131.03;5093824;28;20391;-81
2022/08/13 09:07:47;;;;;;;3.90;3.55;;;;;;;29.96;41.92;98130.84;5094020;28;20094;-82
2022/08/13 09:10:15;;;;;;;;;;;;;;;30.11;41.38;98128.91;5094672;28;20024;-81
2022/08/13 09:12:44;;;;;;;6.00;5.13;;;;;;;29.60;43.61;98122.31;5093929;28;19934;-81
2022/08/13 09:15:17;;;;;;;4.30;3.90;;;;;;;29.52;44.55;98116.19;5093849;28;20032;-82
2022/08/13 09:17:45;;;;;;;4.28;3.47;;;;;;;29.77;43.92;98117.94;5094102;28;20020;-82
2022/08/13 09:20:18;;;;;;;4.18;3.78;;;;;;;30.60;42.73;98118.13;5093848;28;20040;-82
2022/08/13 09:23:00;;;;;;;3.72;3.42;;;;;;;30.94;41.81;98107.63;5093633;28;20058;-81
2022/08/13 09:25:26;;;;;;;6.38;4.65;;;;;;;29.70;44.66;98110.53;5093998;28;20030;-82
2022/08/13 09:27:53;;;;;;;4.60;4.20;;;;;;;30.88;41.29;98110.31;5093428;28;20414;-82
2022/08/13 09:30:20;;;;;;;3.92;3.53;;;;;;;31.78;39.37;98108.97;5093307;28;20040;-83
2022/08/13 09:32:48;;;;;;;4.47;4.07;;;;;;;32.33;38.65;98105.63;5092618;28;20060;-83
2022/08/13 09:35:14;;;;;;;4.32;3.70;;;;;;;31.44;39.26;98105.94;5092105;28;20107;-82
2022/08/13 09:37:42;;;;;;;3.97;3.25;;;;;;;32.75;37.74;98101.19;5093059;28;20529;-82
2022/08/13 09:40:12;;;;;;;5.00;4.43;;;;;;;31.52;40.23;98095.78;5093567;28;20031;-82
2022/08/13 09:42:57;;;;;;;3.60;3.30;;;;;;;31.36;40.33;98103.44;5093975;28;20084;-82
2022/08/13 09:45:25;;;;;;;4.07;3.72;;;;;;;32.27;37.60;98107.59;5093578;28;20399;-82
2022/08/13 09:47:52;;;;;;;4.22;3.30;;;;;;;31.84;39.38;98107.03;5093548;28;20032;-82
2022/08/13 09:50:21;;;;;;;4.78;4.30;;;;;;;31.22;39.96;98104.16;5092278;28;20044;-82
2022/08/13 09:52:51;;;;;;;4.15;3.75;;;;;;;32.60;37.13;98105.34;5093921;28;20085;-82
2022/08/13 09:55:17;;;;;;;4.05;3.65;;;;;;;32.65;37.12;98093.28;5093316;28;20028;-82
2022/08/13 09:57:54;;;;;;;4.88;4.47;;;;;;;32.44;37.81;98103.75;5074921;28;20039;-82
2022/08/13 10:00:22;;;;;;;6.07;5.43;;;;;;;32.81;37.31;98097.66;5091931;28;20040;-82
2022/08/13 10:02:57;;;;;;;6.75;5.75;;;;;;;31.30;40.65;98094.00;5092529;28;20124;-82
2022/08/13 10:05:34;;;;;;;4.60;3.83;;;;;;;32.57;37.04;98095.75;5092990;28;20024;-82
2022/08/13 10:08:04;;;;;;;4.78;4.38;;;;;;;31.80;39.45;98089.38;5084969;28;20476;-82
2022/08/13 10:10:31;;;;;;;4.75;4.30;;;;;;;32.26;38.40;98086.91;5093164;28;20032;-82
2022/08/13 10:12:59;;;;;;;5.97;4.70;;;;;;;32.72;37.04;98093.66;5091822;28;20063;-82
2022/08/13 10:15:26;;;;;;;4.55;4.10;;;;;;;33.46;35.03;98082.84;5091567;28;20036;-82
2022/08/13 10:17:55;;;;;;;4.50;3.75;;;;;;;33.30;35.86;98086.25;5093243;28;20407;-82
2022/08/13 10:20:30;;;;;;;5.38;4.88;;;;;;;32.12;38.82;98090.53;5072733;28;20484;-83
2022/08/13 10:22:58;;;;;;;7.07;5.15;;;;;;;32.57;38.18;98080.75;5091933;28;20028;-82
2022/08/13 10:25:26;;;;;;;4.43;4.10;;;;;;;32.04;37.88;98084.44;5092123;28;20365;-82
2022/08/13 10:27:53;;;;;;;4.75;4.35;;;;;;;31.35;39.00;98082.00;5092811;28;20058;-81
2022/08/13 10:30:26;;;;;;;4.47;4.10;;;;;;;31.61;38.63;98084.34;5092539;28;20111;-82
2022/08/13 10:32:54;;;;;;;6.07;5.47;;;;;;;31.83;38.10;98084.78;5091872;28;20387;-82
2022/08/13 10:35:26;;;;;;;4.82;4.28;;;;;;;32.15;37.12;98080.25;5091492;28;20148;-82
2022/08/13 10:37:54;;;;;;;5.05;4.55;;;;;;;32.48;36.56;98078.78;5093185;28;20035;-82
2022/08/13 10:40:20;;;;;;;4.82;4.30;;;;;;;33.33;36.08;98071.78;5093234;28;20124;-82
2022/08/13 10:42:46;;;;;;;4.05;3.65;;;;;;;33.86;35.84;98077.13;5091717;28;20048;-82
2022/08/13 10:45:14;;;;;;;4.90;4.40;;;;;;;33.39;36.43;98071.88;5092800;28;20101;-82
2022/08/13 10:47:47;;;;;;;6.47;4.68;;;;;;;32.21;37.96;98064.09;5092742;28;20060;-82
2022/08/13 10:50:15;;;;;;;6.45;4.35;;;;;;;33.11;37.41;98062.19;5092270;28;20059;-82
2022/08/13 10:52:41;;;;;;;5.18;4.68;;;;;;;33.71;34.40;98061.41;5092837;28;20024;-82
2022/08/13 10:55:11;;;;;;;4.95;4.55;;;;;;;34.07;34.55;98057.94;5092588;28;20101;-82
2022/08/13 10:57:39;;;;;;;6.60;6.00;;;;;;;31.86;38.54;98056.19;5092400;28;20119;-82
2022/08/13 11:00:06;;;;;;;6.80;6.10;;;;;;;31.98;40.55;98058.00;5092536;28;20086;-82
2022/08/13 11:02:32;;;;;;;6.97;6.10;;;;;;;31.57;40.29;98044.81;5093201;28;20047;-83
2022/08/13 11:05:00;;;;;;;7.00;6.32;;;;;;;31.92;38.86;98050.63;5095940;28;20073;-81
2022/08/13 11:07:28;;;;;;;6.50;5.78;;;;;;;32.29;39.08;98051.81;5086351;28;20039;-81
2022/08/13 11:09:54;;;;;;;6.45;5.75;;;;;;;32.34;37.64;98051.16;5093720;28;20020;-83
2022/08/13 11:12:21;;;;;;;6.13;5.63;;;;;;;33.21;35.43;98058.69;5093804;28;20541;-83
2022/08/13 11:14:47;;;;;;;5.45;4.95;;;;;;;33.48;34.80;98051.00;5090333;28;20453;-83
2022/08/13 11:17:17;;;;;;;7.10;6.40;;;;;;;32.99;37.20;98052.69;5092400;28;20035;-82
2022/08/13 11:19:45;;;;;;;6.30;5.70;;;;;;;32.75;35.98;98044.31;5092969;28;20391;-82
2022/08/13 11:22:12;;;;;;;6.07;5.50;;;;;;;32.42;38.02;98051.50;5090611;28;20044;-82
2022/08/13 11:24:38;;;;;;;6.80;5.85;;;;;;;32.13;37.30;98052.31;5092845;28;20039;-82
2022/08/13 11:27:05;;;;;;;7.88;5.70;;;;;;;32.70;36.61;98050.69;5092236;28;20040;-82
2022/08/13 11:29:31;;;;;;;7.70;5.15;;;;;;;33.03;35.49;98052.50;5089400;28;20430;-84
2022/08/13 11:31:57;;;;;;;5.70;5.20;;;;;;;33.74;33.50;98055.50;5086804;28;20047;-82
2022/08/13 11:34:27;;;;;;;5.25;4.80;;;;;;;34.23;32.87;98050.84;5087783;28;20040;-83
2022/08/13 11:36:53;;;;;;;5.88;5.38;;;;;;;34.09;33.47;98052.53;5088418;28;20041;-84
2022/08/13 11:39:20;;;;;;;4.88;4.47;;;;;;;34.14;32.97;98054.66;5086463;28;20065;-84
2022/08/13 11:41:46;;;;;;;4.35;4.03;;;;;;;34.22;33.74;98052.91;5098960;28;20118;-85
2022/08/13 11:44:12;;;;;;;4.88;4.38;;;;;;;34.31;33.53;98058.41;5092964;28;20028;-84
2022/08/13 11:46:38;;;;;;;5.03;4.20;;;;;;;34.55;33.09;98058.13;5085846;28;20040;-81
2022/08/13 11:49:04;;;;;;;5.10;4.60;;;;;;;34.51;33.15;98063.25;5084687;28;20030;-83
2022/08/13 11:51:31;;;;;;;5.13;4.63;;;;;;;34.34;33.28;98056.63;5085200;28;20029;-82
2022/08/13 11:53:57;;;;;;;5.15;4.40;;;;;;;34.39;33.23;98053.84;5089815;28;20652;-81
2022/08/13 11:56:24;;;;;;;6.28;5.68;;;;;;;33.67;34.85;98055.16;5083773;28;20080;-82
2022/08/13 11:58:54;;;;;;;6.00;5.40;;;;;;;33.83;34.26;98051.69;5088030;28;20024;-83
2022/08/13 12:01:21;;;;;;;;;;;;;;;33.81;34.32;98052.22;5091983;28;20493;-83
2022/08/13 12:03:48;;;;;;;5.40;4.85;;;;;;;34.04;35.16;98044.69;5089863;28;20011;-84
2022/08/13 12:06:14;;;;;;;7.00;5.28;;;;;;;34.63;34.06;98045.75;5092473;28;20480;-83